sensor_id;sensor_type;location;lat;lon;timestamp;temperature;humidity
68433;DHT22;55412;51.350;17.056;2022-07-23T00:01:21;18.90;71.80
68433;DHT22;55412;51.350;17.056;2022-07-23T00:03:47;18.90;71.80
68433;DHT22;55412;51.350;17.056;2022-07-23T00:06:14;18.80;72.10
68433;DHT22;55412;51.350;17.056;2022-07-23T00:08:40;18.80;72.10
68433;DHT22;55412;51.350;17.056;2022-07-23T00:11:07;18.80;72.20
68433;DHT22;55412;51.350;17.056;2022-07-23T00:13:33;18.80;72.10
68433;DHT22;55412;51.350;17.056;2022-07-23T00:15:59;18.80;72.10
68433;DHT22;55412;51.350;17.056;2022-07-23T00:18:25;18.80;72.10
68433;DHT22;55412;51.350;17.056;2022-07-23T00:20:51;18.80;71.90
68433;DHT22;55412;51.350;17.056;2022-07-23T00:23:18;18.80;71.80
68433;DHT22;55412;51.350;17.056;2022-07-23T00:25:44;18.70;71.80
68433;DHT22;55412;51.350;17.056;2022-07-23T00:28:11;18.70;71.90
68433;DHT22;55412;51.350;17.056;2022-07-23T00:30:37;18.70;71.90
68433;DHT22;55412;51.350;17.056;2022-07-23T00:33:06;18.70;71.80
68433;DHT22;55412;51.350;17.056;2022-07-23T00:35:35;18.60;72.20
68433;DHT22;55412;51.350;17.056;2022-07-23T00:38:03;18.60;72.50
68433;DHT22;55412;51.350;17.056;2022-07-23T00:40:30;18.50;72.80
68433;DHT22;55412;51.350;17.056;2022-07-23T00:42:57;18.50;72.60
68433;DHT22;55412;51.350;17.056;2022-07-23T00:45:24;18.40;72.60
68433;DHT22;55412;51.350;17.056;2022-07-23T00:47:51;18.40;72.90
68433;DHT22;55412;51.350;17.056;2022-07-23T00:50:17;18.40;73.00
68433;DHT22;55412;51.350;17.056;2022-07-23T00:52:43;18.30;73.00
68433;DHT22;55412;51.350;17.056;2022-07-23T00:55:11;18.30;72.70
68433;DHT22;55412;51.350;17.056;2022-07-23T00:57:40;18.30;72.60
68433;DHT22;55412;51.350;17.056;2022-07-23T01:00:09;18.30;72.70
68433;DHT22;55412;51.350;17.056;2022-07-23T01:02:38;18.20;72.70
68433;DHT22;55412;51.350;17.056;2022-07-23T01:05:05;18.20;72.80
68433;DHT22;55412;51.350;17.056;2022-07-23T01:07:33;18.10;73.00
68433;DHT22;55412;51.350;17.056;2022-07-23T01:09:59;18.10;73.20
68433;DHT22;55412;51.350;17.056;2022-07-23T01:12:26;18.10;73.70
68433;DHT22;55412;51.350;17.056;2022-07-23T01:14:55;18.10;73.40
68433;DHT22;55412;51.350;17.056;2022-07-23T01:17:25;18.10;73.60
68433;DHT22;55412;51.350;17.056;2022-07-23T01:19:51;18.00;73.40
68433;DHT22;55412;51.350;17.056;2022-07-23T01:22:19;18.00;73.40
68433;DHT22;55412;51.350;17.056;2022-07-23T01:24:49;18.00;73.70
68433;DHT22;55412;51.350;17.056;2022-07-23T01:27:15;18.00;74.00
68433;DHT22;55412;51.350;17.056;2022-07-23T01:29:43;18.00;74.20
68433;DHT22;55412;51.350;17.056;2022-07-23T01:32:09;17.90;74.20
68433;DHT22;55412;51.350;17.056;2022-07-23T01:34:35;17.90;74.30
68433;DHT22;55412;51.350;17.056;2022-07-23T01:37:01;17.90;74.20
68433;DHT22;55412;51.350;17.056;2022-07-23T01:39:27;17.90;74.20
68433;DHT22;55412;51.350;17.056;2022-07-23T01:41:53;17.90;74.20
68433;DHT22;55412;51.350;17.056;2022-07-23T01:44:19;17.90;74.10
68433;DHT22;55412;51.350;17.056;2022-07-23T01:46:45;17.90;74.20
68433;DHT22;55412;51.350;17.056;2022-07-23T01:49:11;17.80;74.30
68433;DHT22;55412;51.350;17.056;2022-07-23T01:51:37;17.80;74.30
68433;DHT22;55412;51.350;17.056;2022-07-23T01:54:23;17.80;74.30
68433;DHT22;55412;51.350;17.056;2022-07-23T01:56:49;17.80;74.40
68433;DHT22;55412;51.350;17.056;2022-07-23T01:59:15;17.80;74.40
68433;DHT22;55412;51.350;17.056;2022-07-23T02:01:41;17.80;74.70
68433;DHT22;55412;51.350;17.056;2022-07-23T02:04:07;17.80;74.60
68433;DHT22;55412;51.350;17.056;2022-07-23T02:06:33;17.70;74.70
68433;DHT22;55412;51.350;17.056;2022-07-23T02:08:59;17.70;74.70
68433;DHT22;55412;51.350;17.056;2022-07-23T02:11:25;17.80;74.70
68433;DHT22;55412;51.350;17.056;2022-07-23T02:13:51;17.80;74.50
68433;DHT22;55412;51.350;17.056;2022-07-23T02:16:17;17.80;74.40
68433;DHT22;55412;51.350;17.056;2022-07-23T02:18:43;17.80;74.50
68433;DHT22;55412;51.350;17.056;2022-07-23T02:21:09;17.80;74.60
68433;DHT22;55412;51.350;17.056;2022-07-23T02:23:35;17.80;74.50
68433;DHT22;55412;51.350;17.056;2022-07-23T02:26:01;17.80;74.50
68433;DHT22;55412;51.350;17.056;2022-07-23T02:28:27;17.80;74.60
68433;DHT22;55412;51.350;17.056;2022-07-23T02:30:53;17.80;74.50
68433;DHT22;55412;51.350;17.056;2022-07-23T02:33:19;17.70;74.60
68433;DHT22;55412;51.350;17.056;2022-07-23T02:35:45;17.70;75.40
68433;DHT22;55412;51.350;17.056;2022-07-23T02:38:11;17.60;75.40
68433;DHT22;55412;51.350;17.056;2022-07-23T02:40:38;17.70;74.90
68433;DHT22;55412;51.350;17.056;2022-07-23T02:43:04;17.60;74.90
68433;DHT22;55412;51.350;17.056;2022-07-23T02:45:30;17.60;75.10
68433;DHT22;55412;51.350;17.056;2022-07-23T02:47:56;17.60;75.30
68433;DHT22;55412;51.350;17.056;2022-07-23T02:50:23;17.60;75.30
68433;DHT22;55412;51.350;17.056;2022-07-23T02:52:49;17.60;75.40
68433;DHT22;55412;51.350;17.056;2022-07-23T02:55:15;17.70;75.30
68433;DHT22;55412;51.350;17.056;2022-07-23T02:57:41;17.70;75.20
68433;DHT22;55412;51.350;17.056;2022-07-23T03:00:08;17.80;75.20
68433;DHT22;55412;51.350;17.056;2022-07-23T03:02:34;17.80;74.90
68433;DHT22;55412;51.350;17.056;2022-07-23T03:05:00;17.80;74.90
68433;DHT22;55412;51.350;17.056;2022-07-23T03:07:26;17.80;75.20
68433;DHT22;55412;51.350;17.056;2022-07-23T03:09:52;17.80;75.20
68433;DHT22;55412;51.350;17.056;2022-07-23T03:12:18;17.80;75.00
68433;DHT22;55412;51.350;17.056;2022-07-23T03:14:44;17.80;75.20
68433;DHT22;55412;51.350;17.056;2022-07-23T03:17:10;17.80;75.20
68433;DHT22;55412;51.350;17.056;2022-07-23T03:19:37;17.80;75.10
68433;DHT22;55412;51.350;17.056;2022-07-23T03:22:04;17.80;75.10
68433;DHT22;55412;51.350;17.056;2022-07-23T03:24:30;17.90;75.10
68433;DHT22;55412;51.350;17.056;2022-07-23T03:27:15;17.90;75.00
68433;DHT22;55412;51.350;17.056;2022-07-23T03:29:41;17.90;75.00
68433;DHT22;55412;51.350;17.056;2022-07-23T03:32:07;18.00;75.00
68433;DHT22;55412;51.350;17.056;2022-07-23T03:34:33;18.10;74.90
68433;DHT22;55412;51.350;17.056;2022-07-23T03:36:59;18.10;74.80
68433;DHT22;55412;51.350;17.056;2022-07-23T03:39:25;18.20;74.80
68433;DHT22;55412;51.350;17.056;2022-07-23T03:41:51;18.40;74.80
68433;DHT22;55412;51.350;17.056;2022-07-23T03:44:18;18.50;74.40
68433;DHT22;55412;51.350;17.056;2022-07-23T03:46:44;18.60;74.40
68433;DHT22;55412;51.350;17.056;2022-07-23T03:49:10;18.70;74.70
68433;DHT22;55412;51.350;17.056;2022-07-23T03:51:36;18.80;74.30
68433;DHT22;55412;51.350;17.056;2022-07-23T03:54:02;18.80;74.10
68433;DHT22;55412;51.350;17.056;2022-07-23T03:56:28;18.90;74.10
68433;DHT22;55412;51.350;17.056;2022-07-23T03:58:54;19.00;73.70
68433;DHT22;55412;51.350;17.056;2022-07-23T04:01:20;19.00;73.40
68433;DHT22;55412;51.350;17.056;2022-07-23T04:03:46;19.00;73.40
68433;DHT22;55412;51.350;17.056;2022-07-23T04:06:12;19.00;72.70
68433;DHT22;55412;51.350;17.056;2022-07-23T04:08:38;19.10;72.60
68433;DHT22;55412;51.350;17.056;2022-07-23T04:11:04;19.20;72.20
68433;DHT22;55412;51.350;17.056;2022-07-23T04:13:30;19.30;72.20
68433;DHT22;55412;51.350;17.056;2022-07-23T04:15:58;19.40;71.70
68433;DHT22;55412;51.350;17.056;2022-07-23T04:18:24;19.50;71.50
68433;DHT22;55412;51.350;17.056;2022-07-23T04:20:51;19.70;71.50
68433;DHT22;55412;51.350;17.056;2022-07-23T04:23:18;19.90;71.30
68433;DHT22;55412;51.350;17.056;2022-07-23T04:25:44;20.00;70.60
68433;DHT22;55412;51.350;17.056;2022-07-23T04:28:10;20.30;70.70
68433;DHT22;55412;51.350;17.056;2022-07-23T04:30:36;20.50;71.60
68433;DHT22;55412;51.350;17.056;2022-07-23T04:33:03;20.70;71.40
68433;DHT22;55412;51.350;17.056;2022-07-23T04:35:33;20.90;70.30
68433;DHT22;55412;51.350;17.056;2022-07-23T04:38:00;21.10;70.20
68433;DHT22;55412;51.350;17.056;2022-07-23T04:40:27;21.20;69.60
68433;DHT22;55412;51.350;17.056;2022-07-23T04:42:54;21.40;68.70
68433;DHT22;55412;51.350;17.056;2022-07-23T04:45:20;21.60;67.90
68433;DHT22;55412;51.350;17.056;2022-07-23T04:47:46;21.80;67.00
68433;DHT22;55412;51.350;17.056;2022-07-23T04:50:12;21.90;66.90
68433;DHT22;55412;51.350;17.056;2022-07-23T04:52:38;22.20;66.70
68433;DHT22;55412;51.350;17.056;2022-07-23T04:55:05;22.40;66.10
68433;DHT22;55412;51.350;17.056;2022-07-23T04:57:31;22.60;65.80
68433;DHT22;55412;51.350;17.056;2022-07-23T04:59:57;22.90;65.40
68433;DHT22;55412;51.350;17.056;2022-07-23T05:02:23;23.00;63.80
68433;DHT22;55412;51.350;17.056;2022-07-23T05:04:49;23.10;62.40
68433;DHT22;55412;51.350;17.056;2022-07-23T05:07:15;23.20;62.00
68433;DHT22;55412;51.350;17.056;2022-07-23T05:09:41;23.40;62.50
68433;DHT22;55412;51.350;17.056;2022-07-23T05:12:07;23.50;61.60
68433;DHT22;55412;51.350;17.056;2022-07-23T05:14:33;23.50;61.80
68433;DHT22;55412;51.350;17.056;2022-07-23T05:16:59;23.60;61.60
68433;DHT22;55412;51.350;17.056;2022-07-23T05:19:26;23.70;62.00
68433;DHT22;55412;51.350;17.056;2022-07-23T05:21:52;23.80;60.30
68433;DHT22;55412;51.350;17.056;2022-07-23T05:24:18;23.90;60.50
68433;DHT22;55412;51.350;17.056;2022-07-23T05:26:44;24.10;59.50
68433;DHT22;55412;51.350;17.056;2022-07-23T05:29:10;24.10;59.50
68433;DHT22;55412;51.350;17.056;2022-07-23T05:31:36;24.30;59.90
68433;DHT22;55412;51.350;17.056;2022-07-23T05:34:02;24.30;59.80
68433;DHT22;55412;51.350;17.056;2022-07-23T05:36:28;24.50;59.70
68433;DHT22;55412;51.350;17.056;2022-07-23T05:38:54;24.70;58.70
68433;DHT22;55412;51.350;17.056;2022-07-23T05:41:20;24.80;58.10
68433;DHT22;55412;51.350;17.056;2022-07-23T05:43:46;25.20;58.00
68433;DHT22;55412;51.350;17.056;2022-07-23T05:46:12;25.40;57.50
68433;DHT22;55412;51.350;17.056;2022-07-23T05:48:38;25.70;57.80
68433;DHT22;55412;51.350;17.056;2022-07-23T05:51:04;25.90;57.40
68433;DHT22;55412;51.350;17.056;2022-07-23T05:53:33;26.10;56.30
68433;DHT22;55412;51.350;17.056;2022-07-23T05:56:00;26.30;56.00
68433;DHT22;55412;51.350;17.056;2022-07-23T05:58:26;26.50;55.60
68433;DHT22;55412;51.350;17.056;2022-07-23T06:00:53;26.70;55.00
68433;DHT22;55412;51.350;17.056;2022-07-23T06:03:19;27.10;54.90
68433;DHT22;55412;51.350;17.056;2022-07-23T06:05:45;27.50;53.70
68433;DHT22;55412;51.350;17.056;2022-07-23T06:08:12;28.10;53.00
68433;DHT22;55412;51.350;17.056;2022-07-23T06:10:38;28.80;51.40
68433;DHT22;55412;51.350;17.056;2022-07-23T06:13:04;29.50;49.70
68433;DHT22;55412;51.350;17.056;2022-07-23T06:15:30;29.80;49.20
68433;DHT22;55412;51.350;17.056;2022-07-23T06:17:56;29.80;49.10
68433;DHT22;55412;51.350;17.056;2022-07-23T06:20:22;29.70;49.70
68433;DHT22;55412;51.350;17.056;2022-07-23T06:22:48;29.40;49.70
68433;DHT22;55412;51.350;17.056;2022-07-23T06:25:14;29.60;48.30
68433;DHT22;55412;51.350;17.056;2022-07-23T06:27:42;30.30;47.00
68433;DHT22;55412;51.350;17.056;2022-07-23T06:30:08;31.00;44.70
68433;DHT22;55412;51.350;17.056;2022-07-23T06:32:35;31.60;43.70
68433;DHT22;55412;51.350;17.056;2022-07-23T06:35:02;32.10;42.50
68433;DHT22;55412;51.350;17.056;2022-07-23T06:37:28;32.40;42.00
68433;DHT22;55412;51.350;17.056;2022-07-23T06:39:54;32.90;41.30
68433;DHT22;55412;51.350;17.056;2022-07-23T06:42:21;33.00;41.00
68433;DHT22;55412;51.350;17.056;2022-07-23T06:44:47;32.90;41.20
68433;DHT22;55412;51.350;17.056;2022-07-23T06:47:13;32.90;40.30
68433;DHT22;55412;51.350;17.056;2022-07-23T06:49:39;33.20;40.40
68433;DHT22;55412;51.350;17.056;2022-07-23T06:52:07;32.90;41.20
68433;DHT22;55412;51.350;17.056;2022-07-23T06:54:34;32.80;41.20
68433;DHT22;55412;51.350;17.056;2022-07-23T06:57:00;32.60;41.50
68433;DHT22;55412;51.350;17.056;2022-07-23T06:59:27;32.50;41.80
68433;DHT22;55412;51.350;17.056;2022-07-23T07:01:53;32.70;42.90
68433;DHT22;55412;51.350;17.056;2022-07-23T07:04:19;33.00;41.50
68433;DHT22;55412;51.350;17.056;2022-07-23T07:06:45;33.10;41.50
68433;DHT22;55412;51.350;17.056;2022-07-23T07:09:11;33.60;41.30
68433;DHT22;55412;51.350;17.056;2022-07-23T07:11:37;33.80;40.80
68433;DHT22;55412;51.350;17.056;2022-07-23T07:14:03;33.90;40.60
68433;DHT22;55412;51.350;17.056;2022-07-23T07:16:30;33.60;40.60
68433;DHT22;55412;51.350;17.056;2022-07-23T07:18:57;33.50;40.60
68433;DHT22;55412;51.350;17.056;2022-07-23T07:21:23;33.20;40.50
68433;DHT22;55412;51.350;17.056;2022-07-23T07:23:49;33.30;42.00
68433;DHT22;55412;51.350;17.056;2022-07-23T07:26:15;33.30;40.30
68433;DHT22;55412;51.350;17.056;2022-07-23T07:28:42;33.10;42.10
68433;DHT22;55412;51.350;17.056;2022-07-23T07:31:08;33.20;43.20
68433;DHT22;55412;51.350;17.056;2022-07-23T07:33:34;33.10;40.60
68433;DHT22;55412;51.350;17.056;2022-07-23T07:36:00;32.60;41.50
68433;DHT22;55412;51.350;17.056;2022-07-23T07:38:26;32.40;42.10
68433;DHT22;55412;51.350;17.056;2022-07-23T07:40:52;32.30;42.60
68433;DHT22;55412;51.350;17.056;2022-07-23T07:43:18;32.30;42.50
68433;DHT22;55412;51.350;17.056;2022-07-23T07:45:44;32.40;42.90
68433;DHT22;55412;51.350;17.056;2022-07-23T07:48:10;32.50;42.20
68433;DHT22;55412;51.350;17.056;2022-07-23T07:50:36;32.50;41.90
68433;DHT22;55412;51.350;17.056;2022-07-23T07:53:02;32.20;41.80
68433;DHT22;55412;51.350;17.056;2022-07-23T07:55:28;32.10;42.00
68433;DHT22;55412;51.350;17.056;2022-07-23T07:57:54;31.90;41.90
68433;DHT22;55412;51.350;17.056;2022-07-23T08:00:21;31.70;42.30
68433;DHT22;55412;51.350;17.056;2022-07-23T08:02:51;31.70;42.90
68433;DHT22;55412;51.350;17.056;2022-07-23T08:05:22;31.80;42.40
68433;DHT22;55412;51.350;17.056;2022-07-23T08:07:50;31.80;43.20
68433;DHT22;55412;51.350;17.056;2022-07-23T08:10:16;31.80;42.10
68433;DHT22;55412;51.350;17.056;2022-07-23T08:12:47;31.70;42.50
68433;DHT22;55412;51.350;17.056;2022-07-23T08:15:18;31.40;42.60
68433;DHT22;55412;51.350;17.056;2022-07-23T08:17:46;31.40;42.00
68433;DHT22;55412;51.350;17.056;2022-07-23T08:20:14;31.50;42.80
68433;DHT22;55412;51.350;17.056;2022-07-23T08:22:51;31.60;43.10
68433;DHT22;55412;51.350;17.056;2022-07-23T08:25:26;31.80;42.80
68433;DHT22;55412;51.350;17.056;2022-07-23T08:27:54;32.00;42.20
68433;DHT22;55412;51.350;17.056;2022-07-23T08:30:21;32.10;41.90
68433;DHT22;55412;51.350;17.056;2022-07-23T08:32:52;32.00;41.90
68433;DHT22;55412;51.350;17.056;2022-07-23T08:38:00;31.80;41.80
68433;DHT22;55412;51.350;17.056;2022-07-23T08:40:29;31.60;42.00
68433;DHT22;55412;51.350;17.056;2022-07-23T08:42:56;31.40;42.60
68433;DHT22;55412;51.350;17.056;2022-07-23T08:45:24;31.30;43.00
68433;DHT22;55412;51.350;17.056;2022-07-23T08:47:56;31.10;43.10
68433;DHT22;55412;51.350;17.056;2022-07-23T08:50:26;31.00;43.80
68433;DHT22;55412;51.350;17.056;2022-07-23T08:52:53;31.00;44.00
68433;DHT22;55412;51.350;17.056;2022-07-23T08:55:22;31.00;44.10
68433;DHT22;55412;51.350;17.056;2022-07-23T08:57:50;30.90;42.90
68433;DHT22;55412;51.350;17.056;2022-07-23T09:00:20;30.80;43.80
68433;DHT22;55412;51.350;17.056;2022-07-23T09:02:48;30.80;43.70
68433;DHT22;55412;51.350;17.056;2022-07-23T09:05:16;30.80;43.20
68433;DHT22;55412;51.350;17.056;2022-07-23T09:08:15;30.80;44.40
68433;DHT22;55412;51.350;17.056;2022-07-23T09:10:50;31.00;44.30
68433;DHT22;55412;51.350;17.056;2022-07-23T09:16:35;31.00;44.40
68433;DHT22;55412;51.350;17.056;2022-07-23T09:19:00;30.90;43.90
68433;DHT22;55412;51.350;17.056;2022-07-23T09:21:32;30.80;44.10
68433;DHT22;55412;51.350;17.056;2022-07-23T09:24:08;30.70;44.30
68433;DHT22;55412;51.350;17.056;2022-07-23T09:29:20;30.50;44.60
68433;DHT22;55412;51.350;17.056;2022-07-23T09:32:00;30.30;44.60
68433;DHT22;55412;51.350;17.056;2022-07-23T09:34:35;30.10;44.70
68433;DHT22;55412;51.350;17.056;2022-07-23T09:37:16;30.00;45.00
68433;DHT22;55412;51.350;17.056;2022-07-23T09:39:45;29.90;45.40
68433;DHT22;55412;51.350;17.056;2022-07-23T09:42:19;29.80;45.80
68433;DHT22;55412;51.350;17.056;2022-07-23T09:44:48;29.80;46.30
68433;DHT22;55412;51.350;17.056;2022-07-23T09:47:16;29.70;46.70
68433;DHT22;55412;51.350;17.056;2022-07-23T09:50:02;29.60;49.10
68433;DHT22;55412;51.350;17.056;2022-07-23T09:52:37;29.30;51.60
68433;DHT22;55412;51.350;17.056;2022-07-23T09:55:09;28.70;52.50
68433;DHT22;55412;51.350;17.056;2022-07-23T09:57:35;28.10;54.00
68433;DHT22;55412;51.350;17.056;2022-07-23T10:00:04;27.60;55.50
68433;DHT22;55412;51.350;17.056;2022-07-23T10:02:33;27.50;57.70
68433;DHT22;55412;51.350;17.056;2022-07-23T10:05:00;27.30;58.90
68433;DHT22;55412;51.350;17.056;2022-07-23T10:07:27;27.10;59.40
68433;DHT22;55412;51.350;17.056;2022-07-23T10:10:00;26.80;60.20
68433;DHT22;55412;51.350;17.056;2022-07-23T10:12:26;26.40;60.90
68433;DHT22;55412;51.350;17.056;2022-07-23T10:14:52;26.20;60.50
68433;DHT22;55412;51.350;17.056;2022-07-23T10:17:19;25.70;60.90
68433;DHT22;55412;51.350;17.056;2022-07-23T10:19:45;25.30;62.00
68433;DHT22;55412;51.350;17.056;2022-07-23T10:22:25;25.00;64.00
68433;DHT22;55412;51.350;17.056;2022-07-23T10:31:26;24.00;68.00
68433;DHT22;55412;51.350;17.056;2022-07-23T10:34:21;23.80;69.20
68433;DHT22;55412;51.350;17.056;2022-07-23T10:36:57;23.60;69.30
68433;DHT22;55412;51.350;17.056;2022-07-23T10:39:34;23.60;69.80
68433;DHT22;55412;51.350;17.056;2022-07-23T10:42:14;23.60;69.60
68433;DHT22;55412;51.350;17.056;2022-07-23T10:44:45;23.50;69.90
68433;DHT22;55412;51.350;17.056;2022-07-23T10:47:25;23.60;69.90
68433;DHT22;55412;51.350;17.056;2022-07-23T10:58:01;23.90;69.80
68433;DHT22;55412;51.350;17.056;2022-07-23T11:00:30;23.90;69.80
68433;DHT22;55412;51.350;17.056;2022-07-23T11:02:59;23.90;70.00
68433;DHT22;55412;51.350;17.056;2022-07-23T11:05:40;24.00;70.60
68433;DHT22;55412;51.350;17.056;2022-07-23T11:08:15;24.00;70.20
68433;DHT22;55412;51.350;17.056;2022-07-23T11:10:53;24.00;71.60
68433;DHT22;55412;51.350;17.056;2022-07-23T11:13:32;24.00;69.90
68433;DHT22;55412;51.350;17.056;2022-07-23T11:16:03;23.90;69.50
68433;DHT22;55412;51.350;17.056;2022-07-23T11:34:43;24.60;70.20
68433;DHT22;55412;51.350;17.056;2022-07-23T11:37:33;24.70;70.50
68433;DHT22;55412;51.350;17.056;2022-07-23T11:40:02;24.70;67.80
68433;DHT22;55412;51.350;17.056;2022-07-23T11:42:31;24.70;68.60
68433;DHT22;55412;51.350;17.056;2022-07-23T11:44:57;24.80;68.20
68433;DHT22;55412;51.350;17.056;2022-07-23T11:47:25;24.80;67.90
68433;DHT22;55412;51.350;17.056;2022-07-23T11:50:00;24.80;68.80
68433;DHT22;55412;51.350;17.056;2022-07-23T11:52:27;24.80;68.90
68433;DHT22;55412;51.350;17.056;2022-07-23T11:55:00;24.80;68.70
68433;DHT22;55412;51.350;17.056;2022-07-23T11:57:32;24.80;69.10
68433;DHT22;55412;51.350;17.056;2022-07-23T12:00:19;24.90;69.20
68433;DHT22;55412;51.350;17.056;2022-07-23T12:02:56;25.00;69.10
68433;DHT22;55412;51.350;17.056;2022-07-23T12:05:34;25.00;68.40
68433;DHT22;55412;51.350;17.056;2022-07-23T12:08:04;25.00;68.40
68433;DHT22;55412;51.350;17.056;2022-07-23T12:10:40;25.10;67.70
68433;DHT22;55412;51.350;17.056;2022-07-23T12:13:09;25.20;66.40
68433;DHT22;55412;51.350;17.056;2022-07-23T12:15:41;25.30;67.70
68433;DHT22;55412;51.350;17.056;2022-07-23T12:18:11;25.40;67.30
68433;DHT22;55412;51.350;17.056;2022-07-23T12:20:47;25.50;68.40
68433;DHT22;55412;51.350;17.056;2022-07-23T12:23:16;25.70;67.80
68433;DHT22;55412;51.350;17.056;2022-07-23T12:25:45;25.90;66.10
68433;DHT22;55412;51.350;17.056;2022-07-23T12:28:16;26.10;64.40
68433;DHT22;55412;51.350;17.056;2022-07-23T12:30:51;26.40;65.20
68433;DHT22;55412;51.350;17.056;2022-07-23T12:33:26;26.60;65.00
68433;DHT22;55412;51.350;17.056;2022-07-23T12:35:58;26.90;63.90
68433;DHT22;55412;51.350;17.056;2022-07-23T12:38:44;27.20;62.90
68433;DHT22;55412;51.350;17.056;2022-07-23T12:41:12;27.40;61.80
68433;DHT22;55412;51.350;17.056;2022-07-23T12:43:40;27.70;61.50
68433;DHT22;55412;51.350;17.056;2022-07-23T12:46:13;27.90;62.10
68433;DHT22;55412;51.350;17.056;2022-07-23T12:51:25;28.50;60.20
68433;DHT22;55412;51.350;17.056;2022-07-23T12:53:53;28.80;59.30
68433;DHT22;55412;51.350;17.056;2022-07-23T12:56:44;29.10;57.10
68433;DHT22;55412;51.350;17.056;2022-07-23T12:59:14;29.30;56.50
68433;DHT22;55412;51.350;17.056;2022-07-23T13:01:53;29.40;57.00
68433;DHT22;55412;51.350;17.056;2022-07-23T13:04:22;29.60;56.80
68433;DHT22;55412;51.350;17.056;2022-07-23T13:06:51;29.80;55.60
68433;DHT22;55412;51.350;17.056;2022-07-23T13:09:23;29.80;53.50
68433;DHT22;55412;51.350;17.056;2022-07-23T13:11:53;29.90;54.90
68433;DHT22;55412;51.350;17.056;2022-07-23T13:14:21;30.00;54.60
68433;DHT22;55412;51.350;17.056;2022-07-23T13:16:49;30.10;54.10
68433;DHT22;55412;51.350;17.056;2022-07-23T13:19:16;30.10;54.40
68433;DHT22;55412;51.350;17.056;2022-07-23T13:21:42;30.10;53.70
68433;DHT22;55412;51.350;17.056;2022-07-23T13:24:10;30.10;54.00
68433;DHT22;55412;51.350;17.056;2022-07-23T13:26:38;30.20;53.90
68433;DHT22;55412;51.350;17.056;2022-07-23T13:29:05;30.30;54.30
68433;DHT22;55412;51.350;17.056;2022-07-23T13:31:32;30.40;53.10
68433;DHT22;55412;51.350;17.056;2022-07-23T13:33:58;30.40;51.20
68433;DHT22;55412;51.350;17.056;2022-07-23T13:36:25;30.40;52.00
68433;DHT22;55412;51.350;17.056;2022-07-23T13:38:51;30.30;51.30
68433;DHT22;55412;51.350;17.056;2022-07-23T13:41:18;30.30;53.70
68433;DHT22;55412;51.350;17.056;2022-07-23T13:43:44;30.20;55.30
68433;DHT22;55412;51.350;17.056;2022-07-23T13:46:10;30.20;56.00
68433;DHT22;55412;51.350;17.056;2022-07-23T13:48:36;30.10;54.90
68433;DHT22;55412;51.350;17.056;2022-07-23T13:51:02;29.90;55.70
68433;DHT22;55412;51.350;17.056;2022-07-23T13:53:28;29.70;56.60
68433;DHT22;55412;51.350;17.056;2022-07-23T13:55:55;29.80;56.90
68433;DHT22;55412;51.350;17.056;2022-07-23T13:58:21;30.00;55.50
68433;DHT22;55412;51.350;17.056;2022-07-23T14:00:52;30.00;56.10
68433;DHT22;55412;51.350;17.056;2022-07-23T14:03:19;29.90;56.00
68433;DHT22;55412;51.350;17.056;2022-07-23T14:05:48;29.90;57.00
68433;DHT22;55412;51.350;17.056;2022-07-23T14:08:16;30.00;55.90
68433;DHT22;55412;51.350;17.056;2022-07-23T14:10:42;30.10;54.90
68433;DHT22;55412;51.350;17.056;2022-07-23T14:13:08;30.20;55.20
68433;DHT22;55412;51.350;17.056;2022-07-23T14:15:34;30.20;53.60
68433;DHT22;55412;51.350;17.056;2022-07-23T14:18:00;30.20;53.60
68433;DHT22;55412;51.350;17.056;2022-07-23T14:20:26;30.20;51.10
68433;DHT22;55412;51.350;17.056;2022-07-23T14:22:52;30.10;51.20
68433;DHT22;55412;51.350;17.056;2022-07-23T14:25:21;30.00;51.70
68433;DHT22;55412;51.350;17.056;2022-07-23T14:27:47;29.90;51.50
68433;DHT22;55412;51.350;17.056;2022-07-23T14:30:13;29.90;52.10
68433;DHT22;55412;51.350;17.056;2022-07-23T14:32:40;29.80;51.60
68433;DHT22;55412;51.350;17.056;2022-07-23T14:35:07;29.80;51.80
68433;DHT22;55412;51.350;17.056;2022-07-23T14:37:33;29.70;52.20
68433;DHT22;55412;51.350;17.056;2022-07-23T14:40:00;29.70;52.00
68433;DHT22;55412;51.350;17.056;2022-07-23T14:42:26;29.80;51.90
68433;DHT22;55412;51.350;17.056;2022-07-23T14:44:52;29.90;52.20
68433;DHT22;55412;51.350;17.056;2022-07-23T14:47:18;30.10;52.30
68433;DHT22;55412;51.350;17.056;2022-07-23T14:49:44;30.10;51.20
68433;DHT22;55412;51.350;17.056;2022-07-23T14:52:10;30.20;51.90
68433;DHT22;55412;51.350;17.056;2022-07-23T14:54:36;30.30;51.80
68433;DHT22;55412;51.350;17.056;2022-07-23T14:57:03;30.30;51.10
68433;DHT22;55412;51.350;17.056;2022-07-23T14:59:30;30.30;50.20
68433;DHT22;55412;51.350;17.056;2022-07-23T15:01:57;30.20;50.70
68433;DHT22;55412;51.350;17.056;2022-07-23T15:04:24;30.10;50.90
68433;DHT22;55412;51.350;17.056;2022-07-23T15:06:51;30.00;50.30
68433;DHT22;55412;51.350;17.056;2022-07-23T15:09:17;30.00;51.10
68433;DHT22;55412;51.350;17.056;2022-07-23T15:11:44;30.00;50.90
68433;DHT22;55412;51.350;17.056;2022-07-23T15:14:10;29.90;50.50
68433;DHT22;55412;51.350;17.056;2022-07-23T15:16:36;29.90;51.50
68433;DHT22;55412;51.350;17.056;2022-07-23T15:19:03;29.90;51.50
68433;DHT22;55412;51.350;17.056;2022-07-23T15:21:30;29.80;50.80
68433;DHT22;55412;51.350;17.056;2022-07-23T15:23:57;29.70;51.50
68433;DHT22;55412;51.350;17.056;2022-07-23T15:26:30;29.60;51.30
68433;DHT22;55412;51.350;17.056;2022-07-23T15:28:57;29.60;51.30
68433;DHT22;55412;51.350;17.056;2022-07-23T15:31:24;29.60;51.80
68433;DHT22;55412;51.350;17.056;2022-07-23T15:33:50;29.50;51.70
68433;DHT22;55412;51.350;17.056;2022-07-23T15:36:19;29.40;51.70
68433;DHT22;55412;51.350;17.056;2022-07-23T15:38:46;29.30;51.20
68433;DHT22;55412;51.350;17.056;2022-07-23T15:41:13;29.20;51.40
68433;DHT22;55412;51.350;17.056;2022-07-23T15:43:39;29.10;51.00
68433;DHT22;55412;51.350;17.056;2022-07-23T15:46:06;29.00;51.50
68433;DHT22;55412;51.350;17.056;2022-07-23T15:48:35;28.90;52.10
68433;DHT22;55412;51.350;17.056;2022-07-23T15:51:02;28.80;52.60
68433;DHT22;55412;51.350;17.056;2022-07-23T15:53:29;28.80;52.90
68433;DHT22;55412;51.350;17.056;2022-07-23T15:55:55;28.70;52.30
68433;DHT22;55412;51.350;17.056;2022-07-23T15:58:21;28.60;52.70
68433;DHT22;55412;51.350;17.056;2022-07-23T16:00:47;28.50;53.10
68433;DHT22;55412;51.350;17.056;2022-07-23T16:03:14;28.40;53.20